sensor_id;sensor_type;location;lat;lon;timestamp;pressure;altitude;pressure_sealevel;temperature;humidity
13420;BME280;6781;58.440;15.470;2022-10-16T00:00:47;100034.97;;;9.69;100.00
13420;BME280;6781;58.440;15.470;2022-10-16T00:03:14;100276.06;;;11.11;100.00
13420;BME280;6781;58.440;15.470;2022-10-16T00:05:43;100265.13;;;11.07;100.00
13420;BME280;6781;58.440;15.470;2022-10-16T00:08:12;100223.13;;;10.83;100.00
13420;BME280;6781;58.440;15.470;2022-10-16T00:10:39;100181.94;;;10.59;100.00
13420;BME280;6781;58.440;15.470;2022-10-16T00:13:07;100230.22;;;10.81;100.00
13420;BME280;6781;58.440;15.470;2022-10-16T00:15:35;100236.81;;;10.94;100.00
13420;BME280;6781;58.440;15.470;2022-10-16T00:18:04;100047.28;;;9.77;100.00
13420;BME280;6781;58.440;15.470;2022-10-16T00:20:34;100262.56;;;11.17;100.00
13420;BME280;6781;58.440;15.470;2022-10-16T00:23:02;100079.00;;;10.00;100.00
13420;BME280;6781;58.440;15.470;2022-10-16T00:25:31;100150.41;;;10.54;100.00
13420;BME280;6781;58.440;15.470;2022-10-16T00:27:59;100216.75;;;10.96;100.00
13420;BME280;6781;58.440;15.470;2022-10-16T00:30:26;100027.53;;;9.86;100.00
13420;BME280;6781;58.440;15.470;2022-10-16T00:32:54;100215.53;;;11.00;100.00
13420;BME280;6781;58.440;15.470;2022-10-16T00:35:21;100236.84;;;11.14;100.00
13420;BME280;6781;58.440;15.470;2022-10-16T00:37:48;100282.50;;;11.26;100.00
13420;BME280;6781;58.440;15.470;2022-10-16T00:40:15;100260.38;;;11.22;100.00
13420;BME280;6781;58.440;15.470;2022-10-16T00:42:44;100256.25;;;11.09;100.00
13420;BME280;6781;58.440;15.470;2022-10-16T00:45:11;100239.03;;;11.08;100.00
13420;BME280;6781;58.440;15.470;2022-10-16T00:47:41;100250.25;;;11.19;100.00
13420;BME280;6781;58.440;15.470;2022-10-16T00:50:16;100250.16;;;11.30;100.00
13420;BME280;6781;58.440;15.470;2022-10-16T00:52:48;100256.97;;;11.31;100.00
13420;BME280;6781;58.440;15.470;2022-10-16T00:55:16;100251.06;;;11.09;100.00
13420;BME280;6781;58.440;15.470;2022-10-16T00:57:48;100281.16;;;11.31;100.00
13420;BME280;6781;58.440;15.470;2022-10-16T01:00:17;100104.31;;;10.17;100.00
13420;BME280;6781;58.440;15.470;2022-10-16T01:02:52;100281.28;;;11.30;100.00
13420;BME280;6781;58.440;15.470;2022-10-16T01:05:19;100296.22;;;11.37;100.00
13420;BME280;6781;58.440;15.470;2022-10-16T01:07:56;100199.06;;;10.71;100.00
13420;BME280;6781;58.440;15.470;2022-10-16T01:10:31;100279.53;;;11.40;100.00
13420;BME280;6781;58.440;15.470;2022-10-16T01:13:06;100287.88;;;11.34;100.00
13420;BME280;6781;58.440;15.470;2022-10-16T01:15:35;100105.00;;;10.19;100.00
13420;BME280;6781;58.440;15.470;2022-10-16T01:18:09;100127.13;;;10.23;100.00
13420;BME280;6781;58.440;15.470;2022-10-16T01:20:41;100162.56;;;10.53;100.00
13420;BME280;6781;58.440;15.470;2022-10-16T01:23:20;100256.81;;;11.13;100.00
13420;BME280;6781;58.440;15.470;2022-10-16T01:26:19;100185.81;;;10.74;100.00
13420;BME280;6781;58.440;15.470;2022-10-16T01:28:52;100114.88;;;10.25;100.00
13420;BME280;6781;58.440;15.470;2022-10-16T01:31:24;100266.63;;;11.09;100.00
13420;BME280;6781;58.440;15.470;2022-10-16T01:33:57;100327.06;;;11.31;100.00
13420;BME280;6781;58.440;15.470;2022-10-16T01:36:29;100222.25;;;10.72;100.00
13420;BME280;6781;58.440;15.470;2022-10-16T01:39:01;100301.38;;;11.28;100.00
13420;BME280;6781;58.440;15.470;2022-10-16T01:41:32;100062.34;;;9.93;100.00
13420;BME280;6781;58.440;15.470;2022-10-16T01:44:03;100208.38;;;10.83;100.00
13420;BME280;6781;58.440;15.470;2022-10-16T01:46:32;100246.34;;;10.84;100.00
13420;BME280;6781;58.440;15.470;2022-10-16T01:49:02;100233.78;;;10.89;100.00
13420;BME280;6781;58.440;15.470;2022-10-16T01:51:29;100090.97;;;9.91;100.00
13420;BME280;6781;58.440;15.470;2022-10-16T01:53:58;100139.97;;;10.25;100.00
13420;BME280;6781;58.440;15.470;2022-10-16T01:56:28;100035.50;;;9.63;100.00
13420;BME280;6781;58.440;15.470;2022-10-16T01:58:58;100185.50;;;10.58;100.00
13420;BME280;6781;58.440;15.470;2022-10-16T02:01:31;100206.13;;;10.69;100.00
13420;BME280;6781;58.440;15.470;2022-10-16T02:04:03;100094.63;;;9.89;100.00
13420;BME280;6781;58.440;15.470;2022-10-16T02:06:31;100065.22;;;9.69;100.00
13420;BME280;6781;58.440;15.470;2022-10-16T02:09:00;100177.13;;;10.44;100.00
13420;BME280;6781;58.440;15.470;2022-10-16T02:11:27;100199.56;;;10.65;100.00
13420;BME280;6781;58.440;15.470;2022-10-16T02:13:58;100093.69;;;9.90;100.00
13420;BME280;6781;58.440;15.470;2022-10-16T02:16:36;100108.53;;;9.88;100.00
13420;BME280;6781;58.440;15.470;2022-10-16T02:19:07;100180.41;;;10.47;100.00
13420;BME280;6781;58.440;15.470;2022-10-16T02:21:40;100082.00;;;9.74;100.00
13420;BME280;6781;58.440;15.470;2022-10-16T02:24:15;100192.94;;;10.41;100.00
13420;BME280;6781;58.440;15.470;2022-10-16T02:26:49;100105.97;;;9.97;100.00
13420;BME280;6781;58.440;15.470;2022-10-16T02:29:22;100248.34;;;10.71;100.00
13420;BME280;6781;58.440;15.470;2022-10-16T02:31:55;100120.72;;;9.97;100.00
13420;BME280;6781;58.440;15.470;2022-10-16T02:34:27;100078.91;;;9.81;100.00
13420;BME280;6781;58.440;15.470;2022-10-16T02:36:57;100197.66;;;10.67;100.00
13420;BME280;6781;58.440;15.470;2022-10-16T02:39:26;100228.97;;;10.75;100.00
13420;BME280;6781;58.440;15.470;2022-10-16T02:41:54;100081.28;;;9.93;100.00
13420;BME280;6781;58.440;15.470;2022-10-16T02:44:21;100107.38;;;10.01;100.00
13420;BME280;6781;58.440;15.470;2022-10-16T02:46:48;100160.19;;;10.40;100.00
13420;BME280;6781;58.440;15.470;2022-10-16T02:49:17;100253.75;;;10.98;100.00
13420;BME280;6781;58.440;15.470;2022-10-16T02:51:44;100088.19;;;9.83;100.00
13420;BME280;6781;58.440;15.470;2022-10-16T02:54:12;100119.63;;;9.99;100.00
13420;BME280;6781;58.440;15.470;2022-10-16T02:56:44;100151.41;;;10.22;100.00
13420;BME280;6781;58.440;15.470;2022-10-16T02:59:11;100106.81;;;9.98;100.00
13420;BME280;6781;58.440;15.470;2022-10-16T03:01:38;100274.50;;;10.98;100.00
13420;BME280;6781;58.440;15.470;2022-10-16T03:04:05;100126.66;;;9.88;100.00
13420;BME280;6781;58.440;15.470;2022-10-16T03:09:09;100128.47;;;9.97;100.00
13420;BME280;6781;58.440;15.470;2022-10-16T03:11:38;100187.75;;;10.41;100.00
13420;BME280;6781;58.440;15.470;2022-10-16T03:14:06;100173.22;;;10.20;100.00
13420;BME280;6781;58.440;15.470;2022-10-16T03:16:33;100130.06;;;9.88;100.00
13420;BME280;6781;58.440;15.470;2022-10-16T03:19:00;100135.75;;;10.03;100.00
13420;BME280;6781;58.440;15.470;2022-10-16T03:21:27;100092.03;;;9.89;100.00
13420;BME280;6781;58.440;15.470;2022-10-16T03:23:55;100159.06;;;10.24;100.00
13420;BME280;6781;58.440;15.470;2022-10-16T03:26:23;100241.31;;;10.62;100.00
13420;BME280;6781;58.440;15.470;2022-10-16T03:28:50;100136.50;;;9.94;100.00
13420;BME280;6781;58.440;15.470;2022-10-16T03:31:17;100291.50;;;11.12;100.00
13420;BME280;6781;58.440;15.470;2022-10-16T03:33:44;100242.72;;;10.66;100.00
13420;BME280;6781;58.440;15.470;2022-10-16T03:36:11;100172.13;;;10.22;100.00
13420;BME280;6781;58.440;15.470;2022-10-16T03:38:38;100099.88;;;9.77;100.00
13420;BME280;6781;58.440;15.470;2022-10-16T03:41:06;100284.63;;;11.01;100.00
13420;BME280;6781;58.440;15.470;2022-10-16T03:43:35;100171.63;;;10.28;100.00
13420;BME280;6781;58.440;15.470;2022-10-16T03:46:02;100306.50;;;11.08;100.00
13420;BME280;6781;58.440;15.470;2022-10-16T03:48:29;100087.75;;;9.78;100.00
13420;BME280;6781;58.440;15.470;2022-10-16T03:50:57;100242.94;;;10.53;100.00
13420;BME280;6781;58.440;15.470;2022-10-16T03:53:24;100279.94;;;10.86;100.00
13420;BME280;6781;58.440;15.470;2022-10-16T03:55:52;100193.63;;;10.34;100.00
13420;BME280;6781;58.440;15.470;2022-10-16T03:58:18;100082.84;;;9.54;100.00
13420;BME280;6781;58.440;15.470;2022-10-16T04:00:48;100069.09;;;9.33;100.00
13420;BME280;6781;58.440;15.470;2022-10-16T04:03:15;100168.72;;;10.01;100.00
13420;BME280;6781;58.440;15.470;2022-10-16T04:05:44;100169.34;;;9.93;100.00
13420;BME280;6781;58.440;15.470;2022-10-16T04:08:11;100179.59;;;9.95;100.00
13420;BME280;6781;58.440;15.470;2022-10-16T04:10:38;100106.97;;;9.55;100.00
13420;BME280;6781;58.440;15.470;2022-10-16T04:13:05;100091.38;;;9.45;100.00
13420;BME280;6781;58.440;15.470;2022-10-16T04:15:32;100107.78;;;9.55;100.00
13420;BME280;6781;58.440;15.470;2022-10-16T04:18:00;100203.97;;;10.13;100.00
13420;BME280;6781;58.440;15.470;2022-10-16T04:20:29;100078.94;;;9.39;100.00
13420;BME280;6781;58.440;15.470;2022-10-16T04:22:56;100078.88;;;9.29;100.00
13420;BME280;6781;58.440;15.470;2022-10-16T04:25:23;100119.91;;;9.34;100.00
13420;BME280;6781;58.440;15.470;2022-10-16T04:27:52;100316.03;;;10.68;100.00
13420;BME280;6781;58.440;15.470;2022-10-16T04:30:19;100114.59;;;9.35;100.00
13420;BME280;6781;58.440;15.470;2022-10-16T04:32:48;100090.78;;;9.21;100.00
13420;BME280;6781;58.440;15.470;2022-10-16T04:35:16;100343.94;;;10.55;100.00
13420;BME280;6781;58.440;15.470;2022-10-16T04:37:44;100090.72;;;9.11;100.00
13420;BME280;6781;58.440;15.470;2022-10-16T04:40:11;100247.50;;;9.98;100.00
13420;BME280;6781;58.440;15.470;2022-10-16T04:42:38;100110.25;;;9.04;100.00
13420;BME280;6781;58.440;15.470;2022-10-16T04:45:06;100152.34;;;9.38;100.00
13420;BME280;6781;58.440;15.470;2022-10-16T04:47:33;100183.94;;;9.53;100.00
13420;BME280;6781;58.440;15.470;2022-10-16T04:50:00;100178.88;;;9.51;100.00
13420;BME280;6781;58.440;15.470;2022-10-16T04:52:29;100122.81;;;9.08;100.00
13420;BME280;6781;58.440;15.470;2022-10-16T04:54:57;100193.06;;;9.36;100.00
13420;BME280;6781;58.440;15.470;2022-10-16T04:57:27;100127.81;;;8.89;100.00
13420;BME280;6781;58.440;15.470;2022-10-16T04:59:54;100105.97;;;8.82;100.00
13420;BME280;6781;58.440;15.470;2022-10-16T05:02:21;100320.88;;;9.99;100.00
13420;BME280;6781;58.440;15.470;2022-10-16T05:04:48;100248.00;;;9.71;100.00
13420;BME280;6781;58.440;15.470;2022-10-16T05:07:15;100133.25;;;8.86;100.00
13420;BME280;6781;58.440;15.470;2022-10-16T05:09:43;100139.56;;;8.93;100.00
13420;BME280;6781;58.440;15.470;2022-10-16T05:12:10;100106.22;;;8.79;100.00
13420;BME280;6781;58.440;15.470;2022-10-16T05:14:37;100131.13;;;8.80;100.00
13420;BME280;6781;58.440;15.470;2022-10-16T05:17:04;100196.50;;;9.25;100.00
13420;BME280;6781;58.440;15.470;2022-10-16T05:19:31;100165.44;;;8.93;100.00
13420;BME280;6781;58.440;15.470;2022-10-16T05:21:58;100126.09;;;8.67;100.00
13420;BME280;6781;58.440;15.470;2022-10-16T05:24:26;100247.16;;;9.39;100.00
13420;BME280;6781;58.440;15.470;2022-10-16T05:26:54;100145.38;;;8.74;100.00
13420;BME280;6781;58.440;15.470;2022-10-16T05:29:22;100130.59;;;8.65;100.00
13420;BME280;6781;58.440;15.470;2022-10-16T05:31:50;100338.34;;;9.86;100.00
13420;BME280;6781;58.440;15.470;2022-10-16T05:34:18;100259.41;;;9.37;100.00
13420;BME280;6781;58.440;15.470;2022-10-16T05:36:45;100301.94;;;9.55;100.00
13420;BME280;6781;58.440;15.470;2022-10-16T05:39:14;100371.50;;;10.03;100.00
13420;BME280;6781;58.440;15.470;2022-10-16T05:41:42;100238.28;;;9.09;100.00
13420;BME280;6781;58.440;15.470;2022-10-16T05:44:10;100301.28;;;9.42;100.00
13420;BME280;6781;58.440;15.470;2022-10-16T05:46:37;100262.09;;;9.35;100.00
13420;BME280;6781;58.440;15.470;2022-10-16T05:49:04;100350.94;;;9.90;100.00
13420;BME280;6781;58.440;15.470;2022-10-16T05:51:31;100355.41;;;9.88;100.00
13420;BME280;6781;58.440;15.470;2022-10-16T05:53:58;100400.66;;;10.16;100.00
13420;BME280;6781;58.440;15.470;2022-10-16T05:56:25;100328.84;;;9.75;100.00
13420;BME280;6781;58.440;15.470;2022-10-16T05:58:52;100248.34;;;9.35;100.00
13420;BME280;6781;58.440;15.470;2022-10-16T06:01:20;100213.00;;;9.13;100.00
13420;BME280;6781;58.440;15.470;2022-10-16T06:03:49;100184.72;;;8.89;100.00
13420;BME280;6781;58.440;15.470;2022-10-16T06:06:20;100372.25;;;9.83;100.00
13420;BME280;6781;58.440;15.470;2022-10-16T06:08:50;100441.50;;;10.35;100.00
13420;BME280;6781;58.440;15.470;2022-10-16T06:11:18;100410.31;;;10.25;100.00
13420;BME280;6781;58.440;15.470;2022-10-16T06:13:49;100219.47;;;9.07;100.00
13420;BME280;6781;58.440;15.470;2022-10-16T06:16:16;100180.25;;;8.80;100.00
13420;BME280;6781;58.440;15.470;2022-10-16T06:18:45;100331.59;;;9.51;100.00
13420;BME280;6781;58.440;15.470;2022-10-16T06:21:16;100221.34;;;9.05;100.00
13420;BME280;6781;58.440;15.470;2022-10-16T06:23:43;100221.50;;;8.93;100.00
13420;BME280;6781;58.440;15.470;2022-10-16T06:26:13;100220.66;;;9.03;100.00
13420;BME280;6781;58.440;15.470;2022-10-16T06:28:48;100257.81;;;9.02;100.00
13420;BME280;6781;58.440;15.470;2022-10-16T06:31:16;100236.88;;;9.05;100.00
13420;BME280;6781;58.440;15.470;2022-10-16T06:33:45;100235.34;;;9.03;100.00
13420;BME280;6781;58.440;15.470;2022-10-16T06:36:13;100258.28;;;9.07;100.00
13420;BME280;6781;58.440;15.470;2022-10-16T06:38:41;100393.28;;;10.00;100.00
13420;BME280;6781;58.440;15.470;2022-10-16T06:41:11;100229.97;;;8.84;100.00
13420;BME280;6781;58.440;15.470;2022-10-16T06:43:38;100252.16;;;9.08;100.00
13420;BME280;6781;58.440;15.470;2022-10-16T06:46:07;100225.84;;;8.92;100.00
13420;BME280;6781;58.440;15.470;2022-10-16T06:48:34;100360.75;;;9.75;100.00
13420;BME280;6781;58.440;15.470;2022-10-16T06:51:04;100455.41;;;10.34;100.00
13420;BME280;6781;58.440;15.470;2022-10-16T06:53:33;100232.44;;;8.96;100.00
13420;BME280;6781;58.440;15.470;2022-10-16T06:56:07;100242.78;;;8.96;100.00
13420;BME280;6781;58.440;15.470;2022-10-16T06:58:36;100282.09;;;9.33;100.00
13420;BME280;6781;58.440;15.470;2022-10-16T07:01:05;100306.31;;;9.55;100.00
13420;BME280;6781;58.440;15.470;2022-10-16T07:03:33;100248.16;;;9.16;100.00
13420;BME280;6781;58.440;15.470;2022-10-16T07:06:05;100259.81;;;8.99;100.00
13420;BME280;6781;58.440;15.470;2022-10-16T07:08:54;100231.25;;;8.89;100.00
13420;BME280;6781;58.440;15.470;2022-10-16T07:11:52;100251.09;;;9.11;100.00
13420;BME280;6781;58.440;15.470;2022-10-16T07:14:21;100229.81;;;9.07;100.00
13420;BME280;6781;58.440;15.470;2022-10-16T07:16:56;100254.28;;;9.03;100.00
13420;BME280;6781;58.440;15.470;2022-10-16T07:19:23;100292.13;;;9.27;100.00
13420;BME280;6781;58.440;15.470;2022-10-16T07:21:52;100235.94;;;8.95;100.00
13420;BME280;6781;58.440;15.470;2022-10-16T07:24:19;100330.16;;;9.69;100.00
13420;BME280;6781;58.440;15.470;2022-10-16T07:26:46;100282.72;;;9.26;100.00
13420;BME280;6781;58.440;15.470;2022-10-16T07:29:19;100504.44;;;10.58;100.00
13420;BME280;6781;58.440;15.470;2022-10-16T07:32:07;100279.91;;;9.18;100.00
13420;BME280;6781;58.440;15.470;2022-10-16T07:34:40;100283.84;;;9.44;100.00
13420;BME280;6781;58.440;15.470;2022-10-16T07:37:10;100504.41;;;10.69;100.00
13420;BME280;6781;58.440;15.470;2022-10-16T07:39:38;100330.50;;;9.76;100.00
13420;BME280;6781;58.440;15.470;2022-10-16T07:42:11;100413.28;;;10.41;100.00
13420;BME280;6781;58.440;15.470;2022-10-16T07:45:12;100264.53;;;9.48;100.00
13420;BME280;6781;58.440;15.470;2022-10-16T07:47:58;100278.31;;;9.49;100.00
13420;BME280;6781;58.440;15.470;2022-10-16T07:50:43;100234.34;;;9.37;100.00
13420;BME280;6781;58.440;15.470;2022-10-16T07:57:05;100461.72;;;11.15;100.00
13420;BME280;6781;58.440;15.470;2022-10-16T07:59:53;100403.06;;;10.82;100.00
13420;BME280;6781;58.440;15.470;2022-10-16T08:02:21;100456.94;;;11.40;100.00
13420;BME280;6781;58.440;15.470;2022-10-16T08:32:17;100176.72;;;10.99;100.00
13420;BME280;6781;58.440;15.470;2022-10-16T08:34:58;100174.53;;;10.94;100.00
13420;BME280;6781;58.440;15.470;2022-10-16T08:37:45;100148.75;;;11.02;100.00
13420;BME280;6781;58.440;15.470;2022-10-16T08:40:43;100213.13;;;11.47;100.00
13420;BME280;6781;58.440;15.470;2022-10-16T08:43:43;100304.38;;;12.02;100.00
13420;BME280;6781;58.440;15.470;2022-10-16T08:46:30;100137.41;;;11.03;100.00
13420;BME280;6781;58.440;15.470;2022-10-16T08:49:00;100206.44;;;11.54;100.00
13420;BME280;6781;58.440;15.470;2022-10-16T08:51:32;100201.94;;;11.56;100.00
13420;BME280;6781;58.440;15.470;2022-10-16T08:54:03;100179.22;;;11.49;100.00
13420;BME280;6781;58.440;15.470;2022-10-16T08:56:31;100291.59;;;12.28;100.00
13420;BME280;6781;58.440;15.470;2022-10-16T08:58:59;100147.53;;;11.45;100.00
13420;BME280;6781;58.440;15.470;2022-10-16T09:01:36;100295.25;;;12.45;100.00
13420;BME280;6781;58.440;15.470;2022-10-16T09:04:21;100272.13;;;12.42;100.00
13420;BME280;6781;58.440;15.470;2022-10-16T09:06:55;100298.31;;;12.77;100.00
13420;BME280;6781;58.440;15.470;2022-10-16T09:09:36;100285.38;;;12.95;100.00
13420;BME280;6781;58.440;15.470;2022-10-16T09:12:13;100240.72;;;12.90;100.00
13420;BME280;6781;58.440;15.470;2022-10-16T09:14:52;100148.53;;;12.65;100.00
13420;BME280;6781;58.440;15.470;2022-10-16T09:17:30;100093.94;;;12.37;100.00
13420;BME280;6781;58.440;15.470;2022-10-16T09:20:14;100135.03;;;12.79;100.00
13420;BME280;6781;58.440;15.470;2022-10-16T09:22:43;100195.81;;;13.33;100.00
13420;BME280;6781;58.440;15.470;2022-10-16T09:25:13;99932.53;;;11.86;100.00
13420;BME280;6781;58.440;15.470;2022-10-16T09:27:42;99982.22;;;12.18;100.00
13420;BME280;6781;58.440;15.470;2022-10-16T09:30:13;100065.00;;;12.68;100.00
13420;BME280;6781;58.440;15.470;2022-10-16T09:32:41;100020.09;;;12.66;100.00
13420;BME280;6781;58.440;15.470;2022-10-16T09:35:14;100139.56;;;13.40;100.00
13420;BME280;6781;58.440;15.470;2022-10-16T09:37:43;99999.34;;;12.92;100.00
13420;BME280;6781;58.440;15.470;2022-10-16T09:40:13;100056.50;;;13.37;100.00
13420;BME280;6781;58.440;15.470;2022-10-16T09:42:52;100106.47;;;13.58;100.00
13420;BME280;6781;58.440;15.470;2022-10-16T09:45:23;100095.44;;;13.64;100.00
13420;BME280;6781;58.440;15.470;2022-10-16T09:47:51;99918.56;;;12.58;100.00
13420;BME280;6781;58.440;15.470;2022-10-16T09:50:25;99921.63;;;12.97;100.00
13420;BME280;6781;58.440;15.470;2022-10-16T09:53:04;99895.31;;;13.08;100.00
13420;BME280;6781;58.440;15.470;2022-10-16T09:55:31;99939.19;;;13.21;100.00
13420;BME280;6781;58.440;15.470;2022-10-16T09:58:01;99833.69;;;12.57;100.00
13420;BME280;6781;58.440;15.470;2022-10-16T10:00:28;99884.63;;;12.85;100.00
13420;BME280;6781;58.440;15.470;2022-10-16T10:02:55;100053.84;;;13.81;100.00
13420;BME280;6781;58.440;15.470;2022-10-16T10:05:25;99812.00;;;12.48;100.00
13420;BME280;6781;58.440;15.470;2022-10-16T10:07:57;100031.22;;;13.89;100.00
13420;BME280;6781;58.440;15.470;2022-10-16T10:10:27;99823.59;;;12.54;100.00
13420;BME280;6781;58.440;15.470;2022-10-16T10:12:55;99968.13;;;13.44;100.00
13420;BME280;6781;58.440;15.470;2022-10-16T10:15:24;99969.16;;;13.51;100.00
13420;BME280;6781;58.440;15.470;2022-10-16T10:17:54;99999.06;;;13.73;100.00
13420;BME280;6781;58.440;15.470;2022-10-16T10:20:25;99925.97;;;13.40;100.00
13420;BME280;6781;58.440;15.470;2022-10-16T10:22:54;99993.88;;;13.89;100.00
13420;BME280;6781;58.440;15.470;2022-10-16T10:25:37;100007.34;;;14.10;100.00
13420;BME280;6781;58.440;15.470;2022-10-16T10:28:20;99816.28;;;12.83;100.00
13420;BME280;6781;58.440;15.470;2022-10-16T10:30:56;99795.38;;;12.67;100.00
13420;BME280;6781;58.440;15.470;2022-10-16T10:33:40;99932.50;;;13.44;100.00
13420;BME280;6781;58.440;15.470;2022-10-16T10:36:30;99931.47;;;13.37;100.00
13420;BME280;6781;58.440;15.470;2022-10-16T10:39:01;99907.06;;;13.12;100.00
13420;BME280;6781;58.440;15.470;2022-10-16T10:41:53;99786.91;;;12.39;100.00
13420;BME280;6781;58.440;15.470;2022-10-16T10:44:36;99792.56;;;12.34;100.00
13420;BME280;6781;58.440;15.470;2022-10-16T10:47:18;99792.38;;;12.54;100.00
13420;BME280;6781;58.440;15.470;2022-10-16T10:50:01;99929.22;;;13.42;100.00
13420;BME280;6781;58.440;15.470;2022-10-16T10:52:57;99979.88;;;13.90;100.00
13420;BME280;6781;58.440;15.470;2022-10-16T10:55:36;99978.91;;;13.83;100.00
13420;BME280;6781;58.440;15.470;2022-10-16T11:04:28;99742.00;;;12.29;100.00
13420;BME280;6781;58.440;15.470;2022-10-16T11:05:04;99811.91;;;12.58;100.00
13420;BME280;6781;58.440;15.470;2022-10-16T11:11:02;99821.44;;;12.75;100.00
13420;BME280;6781;58.440;15.470;2022-10-16T11:13:35;99748.94;;;12.20;100.00
13420;BME280;6781;58.440;15.470;2022-10-16T11:16:13;99934.44;;;13.42;100.00
13420;BME280;6781;58.440;15.470;2022-10-16T11:18:56;99936.88;;;13.44;100.00
13420;BME280;6781;58.440;15.470;2022-10-16T11:21:31;99809.59;;;12.81;100.00
13420;BME280;6781;58.440;15.470;2022-10-16T11:24:06;99725.69;;;12.45;100.00
13420;BME280;6781;58.440;15.470;2022-10-16T11:26:42;99873.28;;;13.20;100.00
13420;BME280;6781;58.440;15.470;2022-10-16T11:29:18;99790.94;;;12.85;100.00
13420;BME280;6781;58.440;15.470;2022-10-16T11:32:03;99716.16;;;12.27;100.00
13420;BME280;6781;58.440;15.470;2022-10-16T11:34:37;99757.72;;;12.79;100.00
13420;BME280;6781;58.440;15.470;2022-10-16T11:37:11;99917.31;;;13.74;100.00
13420;BME280;6781;58.440;15.470;2022-10-16T11:39:40;99795.66;;;13.24;100.00
13420;BME280;6781;58.440;15.470;2022-10-16T11:42:16;99863.91;;;14.02;100.00
13420;BME280;6781;58.440;15.470;2022-10-16T11:44:51;99808.00;;;13.64;100.00
13420;BME280;6781;58.440;15.470;2022-10-16T11:47:34;99788.94;;;13.72;100.00
13420;BME280;6781;58.440;15.470;2022-10-16T11:50:06;99660.34;;;12.98;100.00
13420;BME280;6781;58.440;15.470;2022-10-16T11:52:39;99857.41;;;14.30;100.00
13420;BME280;6781;58.440;15.470;2022-10-16T11:55:15;99829.69;;;14.13;100.00
13420;BME280;6781;58.440;15.470;2022-10-16T11:57:47;99781.47;;;13.77;100.00
13420;BME280;6781;58.440;15.470;2022-10-16T12:00:22;99829.69;;;14.13;100.00
13420;BME280;6781;58.440;15.470;2022-10-16T12:02:57;99861.81;;;14.46;100.00
13420;BME280;6781;58.440;15.470;2022-10-16T12:05:35;99724.44;;;13.74;100.00
13420;BME280;6781;58.440;15.470;2022-10-16T12:08:10;99843.84;;;14.68;100.00
13420;BME280;6781;58.440;15.470;2022-10-16T12:10:39;99787.28;;;14.19;100.00
13420;BME280;6781;58.440;15.470;2022-10-16T12:13:33;99657.66;;;13.32;100.00
13420;BME280;6781;58.440;15.470;2022-10-16T12:16:06;99832.63;;;14.34;100.00
13420;BME280;6781;58.440;15.470;2022-10-16T12:18:35;99801.97;;;13.96;100.00
13420;BME280;6781;58.440;15.470;2022-10-16T12:21:03;99768.09;;;13.72;100.00
13420;BME280;6781;58.440;15.470;2022-10-16T12:23:32;99743.63;;;13.40;100.00
13420;BME280;6781;58.440;15.470;2022-10-16T12:26:02;99712.59;;;13.04;100.00
13420;BME280;6781;58.440;15.470;2022-10-16T12:28:32;99780.75;;;13.50;100.00
13420;BME280;6781;58.440;15.470;2022-10-16T12:31:04;99695.03;;;13.07;100.00
13420;BME280;6781;58.440;15.470;2022-10-16T12:33:33;99711.38;;;13.33;100.00
13420;BME280;6781;58.440;15.470;2022-10-16T12:36:02;99839.78;;;14.24;100.00
13420;BME280;6781;58.440;15.470;2022-10-16T12:38:37;99705.22;;;13.42;100.00
13420;BME280;6781;58.440;15.470;2022-10-16T12:41:06;99764.34;;;13.74;100.00
13420;BME280;6781;58.440;15.470;2022-10-16T12:43:41;99732.59;;;13.62;100.00
13420;BME280;6781;58.440;15.470;2022-10-16T12:46:23;99836.19;;;14.17;100.00
13420;BME280;6781;58.440;15.470;2022-10-16T12:48:51;99743.81;;;13.71;100.00
13420;BME280;6781;58.440;15.470;2022-10-16T12:51:23;99631.56;;;12.91;100.00
13420;BME280;6781;58.440;15.470;2022-10-16T12:53:59;99809.47;;;13.91;100.00
13420;BME280;6781;58.440;15.470;2022-10-16T12:56:35;99658.47;;;12.66;100.00
13420;BME280;6781;58.440;15.470;2022-10-16T12:59:11;99787.88;;;13.32;100.00
13420;BME280;6781;58.440;15.470;2022-10-16T13:01:54;99704.72;;;12.80;100.00
13420;BME280;6781;58.440;15.470;2022-10-16T13:04:47;99752.56;;;12.87;100.00
13420;BME280;6781;58.440;15.470;2022-10-16T13:07:36;99878.00;;;13.17;100.00
13420;BME280;6781;58.440;15.470;2022-10-16T13:10:18;99794.91;;;11.94;100.00
13420;BME280;6781;58.440;15.470;2022-10-16T13:13:00;99822.06;;;11.82;100.00
13420;BME280;6781;58.440;15.470;2022-10-16T13:18:22;99911.75;;;11.76;100.00
13420;BME280;6781;58.440;15.470;2022-10-16T13:20:59;99917.97;;;11.65;100.00
13420;BME280;6781;58.440;15.470;2022-10-16T13:23:33;99914.56;;;11.65;100.00
13420;BME280;6781;58.440;15.470;2022-10-16T13:26:12;99830.06;;;11.16;100.00
13420;BME280;6781;58.440;15.470;2022-10-16T13:28:42;99801.88;;;10.66;100.00
13420;BME280;6781;58.440;15.470;2022-10-16T13:31:15;99809.50;;;10.67;100.00
13420;BME280;6781;58.440;15.470;2022-10-16T13:33:47;99812.88;;;10.77;100.00
13420;BME280;6781;58.440;15.470;2022-10-16T13:36:20;99873.69;;;11.02;100.00
13420;BME280;6781;58.440;15.470;2022-10-16T13:38:47;99961.63;;;11.52;100.00
13420;BME280;6781;58.440;15.470;2022-10-16T13:41:16;99968.47;;;11.53;100.00
13420;BME280;6781;58.440;15.470;2022-10-16T13:43:45;99807.06;;;10.56;100.00
13420;BME280;6781;58.440;15.470;2022-10-16T13:46:16;99778.94;;;10.24;100.00
13420;BME280;6781;58.440;15.470;2022-10-16T13:48:44;99961.84;;;11.31;100.00
13420;BME280;6781;58.440;15.470;2022-10-16T13:51:13;99884.91;;;10.93;100.00
13420;BME280;6781;58.440;15.470;2022-10-16T13:53:41;99990.38;;;11.41;100.00